Time;durP1;ratioP1;P1;durP2;ratioP2;P2;SDS_P1;SDS_P2;PMS_P1;PMS_P2;Temp;Humidity;BMP_temperature;BMP_pressure;BME280_temperature;BME280_humidity;BME280_pressure;Samples;Min_cycle;Max_cycle;Signal;HPM_P1;HPM_P2
2023/08/05 00:01:33;;;;;;;6.10;3.00;;;;;;;;;;5044046;28;20057;-63
2023/08/05 00:03:59;;;;;;;3.53;2.75;;;;;;;;;;5044601;28;20061;-67
2023/08/05 00:06:26;;;;;;;6.03;3.00;;;;;;;;;;5082722;28;20059;-67
2023/08/05 00:08:52;;;;;;;4.43;3.15;;;;;;;;;;5082882;28;20564;-61
2023/08/05 00:11:18;;;;;;;4.72;3.00;;;;;;;;;;5071388;28;20064;-63
2023/08/05 00:13:45;;;;;;;7.93;3.30;;;;;;;;;;5042200;28;20156;-66
2023/08/05 00:16:11;;;;;;;3.78;3.20;;;;;;;;;;5045669;28;20052;-63
2023/08/05 00:18:38;;;;;;;3.35;2.90;;;;;;;;;;5042538;28;20053;-66
2023/08/05 00:21:04;;;;;;;5.25;2.90;;;;;;;;;;5055285;28;20834;-66
2023/08/05 00:23:31;;;;;;;5.13;3.10;;;;;;;;;;5062108;28;20053;-64
2023/08/05 00:25:57;;;;;;;8.75;3.30;;;;;;;;;;5049285;28;20490;-67
2023/08/05 00:28:23;;;;;;;5.15;3.28;;;;;;;;;;5062524;28;20420;-65
2023/08/05 00:30:50;;;;;;;6.10;3.05;;;;;;;;;;5061375;28;20559;-63
2023/08/05 00:33:16;;;;;;;4.00;3.20;;;;;;;;;;5045733;28;20386;-62
2023/08/05 00:35:42;;;;;;;6.20;2.97;;;;;;;;;;5049091;28;20136;-67
2023/08/05 00:38:09;;;;;;;4.05;3.30;;;;;;;;;;5044573;28;20089;-64
2023/08/05 00:40:35;;;;;;;6.57;3.00;;;;;;;;;;5045275;28;20053;-67
2023/08/05 00:43:02;;;;;;;5.57;3.20;;;;;;;;;;5046020;28;20050;-66
2023/08/05 00:45:29;;;;;;;3.65;3.13;;;;;;;;;;5049035;28;20052;-66
2023/08/05 00:47:56;;;;;;;5.75;3.00;;;;;;;;;;5064695;28;20328;-62
2023/08/05 00:50:22;;;;;;;5.30;3.20;;;;;;;;;;5064796;28;20615;-66
2023/08/05 00:52:49;;;;;;;6.18;3.30;;;;;;;;;;5065468;28;20053;-66
2023/08/05 00:55:16;;;;;;;4.07;3.13;;;;;;;;;;5063744;28;20127;-67
2023/08/05 00:57:42;;;;;;;5.28;3.10;;;;;;;;;;5065120;28;20103;-64
2023/08/05 01:00:09;;;;;;;6.32;3.42;;;;;;;;;;5062263;28;20550;-61
2023/08/05 01:02:35;;;;;;;7.93;3.85;;;;;;;;;;5064647;28;20504;-65
2023/08/05 01:05:02;;;;;;;3.67;3.13;;;;;;;;;;5065133;28;20059;-66
2023/08/05 01:07:30;;;;;;;7.82;3.70;;;;;;;;;;5064927;28;20188;-64
2023/08/05 01:09:56;;;;;;;5.60;3.40;;;;;;;;;;5060059;28;20517;-63
2023/08/05 01:12:22;;;;;;;3.40;2.97;;;;;;;;;;5045150;28;20140;-67
2023/08/05 01:14:49;;;;;;;8.18;3.72;;;;;;;;;;5045640;28;20891;-66
2023/08/05 01:17:16;;;;;;;7.53;3.55;;;;;;;;;;5045243;28;20057;-66
2023/08/05 01:19:45;;;;;;;4.55;3.13;;;;;;;;;;5047293;28;20057;-66
2023/08/05 01:22:11;;;;;;;6.13;3.53;;;;;;;;;;5044293;28;20061;-63
2023/08/05 01:24:58;;;;;;;6.65;3.50;;;;;;;;;;5045095;28;20057;-61
2023/08/05 01:27:24;;;;;;;7.63;3.67;;;;;;;;;;5045075;28;20061;-66
2023/08/05 01:29:51;;;;;;;7.38;3.40;;;;;;;;;;5048881;28;20060;-66
2023/08/05 01:32:18;;;;;;;7.45;4.07;;;;;;;;;;5063435;28;20060;-66
2023/08/05 01:34:45;;;;;;;6.93;3.90;;;;;;;;;;5063768;28;20075;-65
2023/08/05 01:37:11;;;;;;;4.25;3.40;;;;;;;;;;5064557;28;20063;-66
2023/08/05 01:39:38;;;;;;;9.35;3.90;;;;;;;;;;5064251;28;20140;-66
2023/08/05 01:42:04;;;;;;;6.75;3.60;;;;;;;;;;5056410;28;20057;-64
2023/08/05 01:44:31;;;;;;;5.70;3.67;;;;;;;;;;5048444;28;20552;-67
2023/08/05 01:46:57;;;;;;;7.03;3.92;;;;;;;;;;5064376;28;20388;-67
2023/08/05 01:49:24;;;;;;;5.95;3.97;;;;;;;;;;5063771;28;20049;-63
2023/08/05 01:51:50;;;;;;;8.57;3.83;;;;;;;;;;5065202;28;20059;-63
2023/08/05 01:54:16;;;;;;;5.10;3.90;;;;;;;;;;5064295;28;20053;-65
2023/08/05 01:56:43;;;;;;;4.57;3.30;;;;;;;;;;5060500;28;20053;-64
2023/08/05 01:59:09;;;;;;;9.82;3.90;;;;;;;;;;5046309;28;20526;-66
2023/08/05 02:01:39;;;;;;;9.75;4.20;;;;;;;;;;5043145;28;20140;-67
2023/08/05 02:04:06;;;;;;;4.35;3.67;;;;;;;;;;5044181;28;20340;-66
2023/08/05 02:06:33;;;;;;;6.82;3.85;;;;;;;;;;5047239;28;20060;-64
2023/08/05 02:08:59;;;;;;;6.55;4.20;;;;;;;;;;5064489;28;20049;-66
2023/08/05 02:11:26;;;;;;;4.57;3.47;;;;;;;;;;5064571;28;20164;-67
2023/08/05 02:13:52;;;;;;;6.50;3.53;;;;;;;;;;5060522;28;20080;-66
2023/08/05 02:16:18;;;;;;;5.40;3.83;;;;;;;;;;5063032;28;20136;-65
2023/08/05 02:18:45;;;;;;;8.73;3.63;;;;;;;;;;5042760;28;20127;-65
2023/08/05 02:21:11;;;;;;;7.30;3.90;;;;;;;;;;5043213;28;20054;-65
2023/08/05 02:23:38;;;;;;;11.32;3.97;;;;;;;;;;5057281;28;20087;-62
2023/08/05 02:26:04;;;;;;;5.20;4.22;;;;;;;;;;5063234;28;20108;-66
2023/08/05 02:28:31;;;;;;;6.97;3.95;;;;;;;;;;5063731;28;20045;-66
2023/08/05 02:30:57;;;;;;;6.85;4.25;;;;;;;;;;5064261;28;20143;-64
2023/08/05 02:33:23;;;;;;;6.30;4.13;;;;;;;;;;5052275;28;20119;-65
2023/08/05 02:35:55;;;;;;;6.50;4.10;;;;;;;;;;5042854;28;20519;-67
2023/08/05 02:38:22;;;;;;;5.40;4.03;;;;;;;;;;5042253;28;20058;-64
2023/08/05 02:40:48;;;;;;;5.28;4.10;;;;;;;;;;5055361;28;20045;-66
2023/08/05 02:43:14;;;;;;;4.80;3.58;;;;;;;;;;5053926;28;20060;-66
2023/08/05 02:45:41;;;;;;;7.05;4.13;;;;;;;;;;5044056;28;20058;-64
2023/08/05 02:48:07;;;;;;;6.47;4.38;;;;;;;;;;5043144;28;20057;-65
2023/08/05 02:50:34;;;;;;;8.05;3.80;;;;;;;;;;5043541;28;20512;-67
2023/08/05 02:53:01;;;;;;;5.03;4.13;;;;;;;;;;5050310;28;20516;-66
2023/08/05 02:55:27;;;;;;;8.25;4.85;;;;;;;;;;5043108;28;20365;-65
2023/08/05 02:57:54;;;;;;;4.53;4.13;;;;;;;;;;5043443;28;20053;-66
2023/08/05 03:00:20;;;;;;;8.48;4.40;;;;;;;;;;5043687;28;20049;-66
2023/08/05 03:02:47;;;;;;;5.47;4.20;;;;;;;;;;5047534;28;20132;-65
2023/08/05 03:05:14;;;;;;;8.95;4.65;;;;;;;;;;5063934;28;20057;-63
2023/08/05 03:07:40;;;;;;;6.25;4.13;;;;;;;;;;5063001;28;20049;-66
2023/08/05 03:10:07;;;;;;;5.57;4.45;;;;;;;;;;5062195;28;20507;-65
2023/08/05 03:12:33;;;;;;;5.95;4.13;;;;;;;;;;5043321;28;20541;-64
2023/08/05 03:15:00;;;;;;;7.28;4.25;;;;;;;;;;5042056;28;20207;-66
2023/08/05 03:17:26;;;;;;;8.07;4.18;;;;;;;;;;5043545;28;20057;-64
2023/08/05 03:19:53;;;;;;;22.08;5.70;;;;;;;;;;5043426;28;20147;-66
2023/08/05 03:22:19;;;;;;;13.18;5.25;;;;;;;;;;5043317;28;20595;-65
2023/08/05 03:24:45;;;;;;;9.77;5.15;;;;;;;;;;5062139;28;20539;-66
2023/08/05 03:27:12;;;;;;;9.40;4.80;;;;;;;;;;5063555;28;20080;-64
2023/08/05 03:29:39;;;;;;;9.43;5.07;;;;;;;;;;5059264;28;20589;-64
2023/08/05 03:32:05;;;;;;;7.35;4.63;;;;;;;;;;5054046;28;20080;-62
2023/08/05 03:34:32;;;;;;;9.43;5.10;;;;;;;;;;5044572;28;20083;-66
2023/08/05 03:36:58;;;;;;;12.27;5.53;;;;;;;;;;5043637;28;20049;-67
2023/08/05 03:39:25;;;;;;;10.50;5.45;;;;;;;;;;5043625;28;20365;-66
2023/08/05 03:41:51;;;;;;;9.18;5.70;;;;;;;;;;5043649;28;20057;-66
2023/08/05 03:44:18;;;;;;;12.75;5.57;;;;;;;;;;5046678;28;20057;-62
2023/08/05 03:46:45;;;;;;;8.93;5.78;;;;;;;;;;5063317;28;20076;-67
2023/08/05 03:49:11;;;;;;;9.32;5.70;;;;;;;;;;5059688;28;20256;-67
2023/08/05 03:51:38;;;;;;;8.80;5.55;;;;;;;;;;5042616;28;20057;-66
2023/08/05 03:54:04;;;;;;;11.98;5.38;;;;;;;;;;5056294;28;20045;-62
2023/08/05 03:56:31;;;;;;;10.95;5.85;;;;;;;;;;5063139;28;20140;-67
2023/08/05 03:58:57;;;;;;;7.00;5.55;;;;;;;;;;5060393;28;20513;-66
2023/08/05 04:01:26;;;;;;;10.93;5.50;;;;;;;;;;5043463;28;20057;-66
2023/08/05 04:03:52;;;;;;;6.28;5.63;;;;;;;;;;5044893;28;20057;-65
2023/08/05 04:06:20;;;;;;;10.93;5.72;;;;;;;;;;5047016;28;20144;-65
2023/08/05 04:08:53;;;;;;;9.38;5.43;;;;;;;;;;5050553;28;20052;-65
2023/08/05 04:11:20;;;;;;;7.22;5.07;;;;;;;;;;5051451;28;20558;-64
2023/08/05 04:13:47;;;;;;;6.28;5.05;;;;;;;;;;5061670;28;20646;-62
2023/08/05 04:16:16;;;;;;;10.30;6.15;;;;;;;;;;5066129;28;20111;-64
2023/08/05 04:18:43;;;;;;;10.25;6.63;;;;;;;;;;5066633;28;20067;-66
2023/08/05 04:21:10;;;;;;;7.40;5.20;;;;;;;;;;5046641;28;20057;-66
2023/08/05 04:23:37;;;;;;;7.25;5.63;;;;;;;;;;5048121;28;20132;-67
2023/08/05 04:26:05;;;;;;;8.00;4.90;;;;;;;;;;5045672;28;20130;-61
2023/08/05 04:28:31;;;;;;;8.00;5.38;;;;;;;;;;5046182;28;20151;-65
2023/08/05 04:30:58;;;;;;;12.30;4.90;;;;;;;;;;5056659;28;20148;-63
2023/08/05 04:33:25;;;;;;;8.32;5.43;;;;;;;;;;5049530;28;20518;-66
2023/08/05 04:35:52;;;;;;;11.25;5.65;;;;;;;;;;5065737;28;20583;-65
2023/08/05 04:38:18;;;;;;;9.75;5.43;;;;;;;;;;5060916;28;20558;-66
2023/08/05 04:40:45;;;;;;;11.35;5.90;;;;;;;;;;5054500;28;20095;-62
2023/08/05 04:43:12;;;;;;;8.15;5.30;;;;;;;;;;5065456;28;20138;-64
2023/08/05 04:45:42;;;;;;;8.85;5.53;;;;;;;;;;5063171;28;20647;-66
2023/08/05 04:48:08;;;;;;;8.68;5.18;;;;;;;;;;5065709;28;20057;-67
2023/08/05 04:50:38;;;;;;;6.75;5.43;;;;;;;;;;5064704;28;20083;-63
2023/08/05 04:53:05;;;;;;;8.05;5.47;;;;;;;;;;5063160;28;20512;-65
2023/08/05 04:55:31;;;;;;;7.03;5.40;;;;;;;;;;5043919;28;20053;-67
2023/08/05 04:57:58;;;;;;;8.13;5.65;;;;;;;;;;5075463;28;20147;-66
2023/08/05 05:00:25;;;;;;;8.80;5.60;;;;;;;;;;5077415;28;20147;-65
2023/08/05 05:02:52;;;;;;;11.95;6.22;;;;;;;;;;5051770;28;20060;-64
2023/08/05 05:05:18;;;;;;;7.95;5.63;;;;;;;;;;5060524;28;20155;-65
2023/08/05 05:07:45;;;;;;;8.65;6.20;;;;;;;;;;5045117;28;20092;-65
2023/08/05 05:10:11;;;;;;;8.52;5.72;;;;;;;;;;5044964;28;20480;-64
2023/08/05 05:12:38;;;;;;;10.15;6.35;;;;;;;;;;5054382;28;20053;-61
2023/08/05 05:15:04;;;;;;;7.88;5.80;;;;;;;;;;5058819;28;20130;-64
2023/08/05 05:17:34;;;;;;;10.45;6.30;;;;;;;;;;5056922;28;20148;-65
2023/08/05 05:20:04;;;;;;;7.00;5.70;;;;;;;;;;5056495;28;20103;-64
2023/08/05 05:22:31;;;;;;;8.35;5.90;;;;;;;;;;5064752;28;20088;-63
2023/08/05 05:24:58;;;;;;;7.95;5.55;;;;;;;;;;5063576;28;20414;-66
2023/08/05 05:27:24;;;;;;;14.40;6.57;;;;;;;;;;5045858;28;20679;-65
2023/08/05 05:29:50;;;;;;;7.53;5.50;;;;;;;;;;5057354;28;20530;-65
2023/08/05 05:32:17;;;;;;;9.27;5.88;;;;;;;;;;5073849;28;20061;-63
2023/08/05 05:34:43;;;;;;;7.60;5.45;;;;;;;;;;5065036;28;20096;-63
2023/08/05 05:37:10;;;;;;;8.13;5.72;;;;;;;;;;5064992;28;20079;-60
2023/08/05 05:39:36;;;;;;;7.53;5.78;;;;;;;;;;5062012;28;20057;-63
2023/08/05 05:42:03;;;;;;;5.82;5.22;;;;;;;;;;5045126;28;20057;-66
2023/08/05 05:44:30;;;;;;;8.63;5.78;;;;;;;;;;5063889;28;20135;-64
2023/08/05 05:46:56;;;;;;;10.75;5.65;;;;;;;;;;5065365;28;20045;-65
2023/08/05 05:49:23;;;;;;;11.60;6.38;;;;;;;;;;5051470;28;20049;-62
2023/08/05 05:51:49;;;;;;;6.82;5.32;;;;;;;;;;5056184;28;20149;-65
2023/08/05 05:54:16;;;;;;;8.80;6.25;;;;;;;;;;5064783;28;20064;-64
2023/08/05 05:56:43;;;;;;;8.98;6.18;;;;;;;;;;5064828;28;20057;-64
2023/08/05 05:59:10;;;;;;;8.80;6.40;;;;;;;;;;5047447;28;20049;-64
2023/08/05 06:01:36;;;;;;;17.45;7.38;;;;;;;;;;5043586;28;20144;-60
2023/08/05 06:04:07;;;;;;;11.55;7.07;;;;;;;;;;5053259;28;20057;-65
2023/08/05 06:06:35;;;;;;;7.75;6.38;;;;;;;;;;5064671;28;20052;-63
2023/08/05 06:09:03;;;;;;;12.35;6.93;;;;;;;;;;5065046;28;20567;-64
2023/08/05 06:11:32;;;;;;;10.02;6.47;;;;;;;;;;5061933;28;20059;-63
2023/08/05 06:13:59;;;;;;;9.75;6.85;;;;;;;;;;5059688;28;20064;-64
2023/08/05 06:16:25;;;;;;;10.68;7.30;;;;;;;;;;5055617;28;20529;-65
2023/08/05 06:18:52;;;;;;;16.42;8.45;;;;;;;;;;5052059;28;20057;-62
2023/08/05 06:21:18;;;;;;;12.43;7.55;;;;;;;;;;5056486;28;20591;-65
2023/08/05 06:23:47;;;;;;;11.63;7.75;;;;;;;;;;5063522;28;20053;-64
2023/08/05 06:26:13;;;;;;;13.65;7.57;;;;;;;;;;5054974;28;20137;-64
2023/08/05 06:28:40;;;;;;;13.55;9.02;;;;;;;;;;5062546;28;20055;-64
2023/08/05 06:31:06;;;;;;;13.98;8.60;;;;;;;;;;5058662;28;20518;-64
2023/08/05 06:33:33;;;;;;;12.48;8.57;;;;;;;;;;5060862;28;20052;-64
2023/08/05 06:36:00;;;;;;;15.23;9.73;;;;;;;;;;5064001;28;20049;-63
2023/08/05 06:38:26;;;;;;;16.50;9.43;;;;;;;;;;5063224;28;20060;-64
2023/08/05 06:40:53;;;;;;;12.35;9.52;;;;;;;;;;5064686;28;20092;-65
2023/08/05 06:43:19;;;;;;;14.88;10.07;;;;;;;;;;5058980;28;20049;-64
2023/08/05 06:45:47;;;;;;;17.90;10.10;;;;;;;;;;5063446;28;20080;-65
2023/08/05 06:48:13;;;;;;;16.00;8.82;;;;;;;;;;5063429;28;20049;-65
2023/08/05 06:50:40;;;;;;;16.52;10.77;;;;;;;;;;5044598;28;20501;-64
2023/08/05 06:53:06;;;;;;;15.30;10.00;;;;;;;;;;5043100;28;20052;-62
2023/08/05 06:55:33;;;;;;;16.65;9.95;;;;;;;;;;5061084;28;20085;-64
2023/08/05 06:57:59;;;;;;;17.30;10.57;;;;;;;;;;5063515;28;20061;-64
2023/08/05 07:00:27;;;;;;;17.02;10.75;;;;;;;;;;5050838;28;20058;-64
2023/08/05 07:02:54;;;;;;;16.67;9.50;;;;;;;;;;5043303;28;20071;-65
2023/08/05 07:05:20;;;;;;;15.30;10.48;;;;;;;;;;5052892;28;20496;-63
2023/08/05 07:07:47;;;;;;;15.63;11.02;;;;;;;;;;5062372;28;20060;-62
2023/08/05 07:10:14;;;;;;;23.95;12.65;;;;;;;;;;5061734;28;20064;-63
2023/08/05 07:12:40;;;;;;;22.98;12.20;;;;;;;;;;5062309;28;20165;-64
2023/08/05 07:15:07;;;;;;;18.33;11.40;;;;;;;;;;5061222;28;20552;-62
2023/08/05 07:17:33;;;;;;;17.45;10.45;;;;;;;;;;5061741;28;20138;-60
2023/08/05 07:19:59;;;;;;;18.75;11.07;;;;;;;;;;5062059;28;20060;-66
2023/08/05 07:22:26;;;;;;;15.02;10.52;;;;;;;;;;5063093;28;20061;-59
2023/08/05 07:24:54;;;;;;;20.08;12.18;;;;;;;;;;5062117;28;20488;-63
2023/08/05 07:27:21;;;;;;;17.42;10.75;;;;;;;;;;5063326;28;20060;-60
2023/08/05 07:29:47;;;;;;;19.10;11.90;;;;;;;;;;5062433;28;20080;-63
2023/08/05 07:32:14;;;;;;;18.30;11.95;;;;;;;;;;5062405;28;20545;-65
2023/08/05 07:34:40;;;;;;;19.77;12.18;;;;;;;;;;5061234;28;20053;-63
2023/08/05 07:37:07;;;;;;;19.60;12.65;;;;;;;;;;5059640;28;20134;-64
2023/08/05 07:39:33;;;;;;;18.70;12.35;;;;;;;;;;5042532;28;20488;-61
2023/08/05 07:42:01;;;;;;;17.85;10.50;;;;;;;;;;5043261;28;20148;-63
2023/08/05 07:44:28;;;;;;;19.95;10.43;;;;;;;;;;5049841;28;20566;-64
2023/08/05 07:46:54;;;;;;;20.77;10.45;;;;;;;;;;5065208;28;20057;-65
2023/08/05 07:49:21;;;;;;;14.45;10.27;;;;;;;;;;5060942;28;20052;-64
2023/08/05 07:51:50;;;;;;;16.77;10.35;;;;;;;;;;5049051;28;20854;-63
2023/08/05 07:54:17;;;;;;;12.90;10.90;;;;;;;;;;5059311;28;20057;-62
2023/08/05 07:56:45;;;;;;;22.45;10.43;;;;;;;;;;5058733;28;20071;-63
2023/08/05 07:59:12;;;;;;;11.50;9.50;;;;;;;;;;5062291;28;20474;-64
2023/08/05 08:01:42;;;;;;;13.68;10.05;;;;;;;;;;5046098;28;20064;-65
2023/08/05 08:04:09;;;;;;;14.43;9.35;;;;;;;;;;5051507;28;20084;-65
2023/08/05 08:06:36;;;;;;;12.60;8.80;;;;;;;;;;5057249;28;20157;-60
2023/08/05 08:09:02;;;;;;;12.15;8.95;;;;;;;;;;5059734;28;20080;-64
2023/08/05 08:11:29;;;;;;;10.40;8.73;;;;;;;;;;5060099;28;20116;-64
2023/08/05 08:13:55;;;;;;;12.18;8.63;;;;;;;;;;5064369;28;20839;-61
2023/08/05 08:16:21;;;;;;;10.70;7.93;;;;;;;;;;5056389;28;20136;-64
2023/08/05 08:18:48;;;;;;;14.60;9.38;;;;;;;;;;5074478;28;20135;-64
2023/08/05 08:21:14;;;;;;;12.00;8.77;;;;;;;;;;5063390;28;20061;-63
2023/08/05 08:23:41;;;;;;;15.55;8.88;;;;;;;;;;5053330;28;20072;-64
2023/08/05 08:26:07;;;;;;;12.93;8.85;;;;;;;;;;5061741;28;20135;-66
2023/08/05 08:28:33;;;;;;;15.30;8.43;;;;;;;;;;5047422;28;20137;-60
2023/08/05 08:31:00;;;;;;;12.45;8.13;;;;;;;;;;5042285;28;20151;-64
2023/08/05 08:33:26;;;;;;;12.18;8.52;;;;;;;;;;5042201;28;20059;-62
2023/08/05 08:35:53;;;;;;;11.15;7.32;;;;;;;;;;5042651;28;20816;-64
2023/08/05 08:38:20;;;;;;;11.43;7.43;;;;;;;;;;5043335;28;20589;-65
2023/08/05 08:40:47;;;;;;;10.10;6.93;;;;;;;;;;5042556;28;20056;-59
2023/08/05 08:43:16;;;;;;;12.65;6.30;;;;;;;;;;5042356;28;20163;-59
2023/08/05 08:45:42;;;;;;;8.98;6.40;;;;;;;;;;5042664;28;20395;-62
2023/08/05 08:48:09;;;;;;;9.88;5.65;;;;;;;;;;5042011;28;20085;-64
2023/08/05 08:50:38;;;;;;;7.50;5.93;;;;;;;;;;5051098;28;20147;-65
2023/08/05 08:53:06;;;;;;;9.65;6.10;;;;;;;;;;5063296;28;20057;-61
2023/08/05 08:55:33;;;;;;;7.63;5.15;;;;;;;;;;5056165;28;20103;-66
2023/08/05 08:57:59;;;;;;;4.95;4.40;;;;;;;;;;5064251;28;20049;-64
2023/08/05 09:00:26;;;;;;;5.32;4.57;;;;;;;;;;5063638;28;20511;-63
2023/08/05 09:02:52;;;;;;;7.03;4.80;;;;;;;;;;5064797;28;20142;-66
2023/08/05 09:05:19;;;;;;;4.80;4.40;;;;;;;;;;5065288;28;20052;-64
2023/08/05 09:07:47;;;;;;;10.75;5.35;;;;;;;;;;5064550;28;20053;-61
2023/08/05 09:10:14;;;;;;;5.25;4.10;;;;;;;;;;5065569;28;20118;-65
2023/08/05 09:12:41;;;;;;;7.20;4.85;;;;;;;;;;5064787;28;20064;-60
2023/08/05 09:15:07;;;;;;;6.10;4.75;;;;;;;;;;5065136;28;20561;-61
2023/08/05 09:17:38;;;;;;;5.15;4.20;;;;;;;;;;5064499;28;20049;-62
2023/08/05 09:20:11;;;;;;;5.63;4.47;;;;;;;;;;5064688;28;20655;-63
2023/08/05 09:22:38;;;;;;;4.63;4.18;;;;;;;;;;5064786;28;20388;-66
2023/08/05 09:25:04;;;;;;;5.57;4.53;;;;;;;;;;5065095;28;20515;-65
2023/08/05 09:27:44;;;;;;;4.75;3.97;;;;;;;;;;5065077;28;20107;-63
2023/08/05 09:30:15;;;;;;;4.72;3.95;;;;;;;;;;5063226;28;20131;-65
2023/08/05 09:32:45;;;;;;;5.32;4.05;;;;;;;;;;5058820;28;20058;-65
2023/08/05 09:35:13;;;;;;;6.63;4.72;;;;;;;;;;5045861;28;20520;-64
2023/08/05 09:37:49;;;;;;;5.32;4.38;;;;;;;;;;5048521;28;20049;-64
2023/08/05 09:40:17;;;;;;;6.32;4.40;;;;;;;;;;5064753;28;20049;-65
2023/08/05 09:42:47;;;;;;;5.60;3.60;;;;;;;;;;5064866;28;20053;-65
2023/08/05 09:45:17;;;;;;;5.72;4.03;;;;;;;;;;5065150;28;20376;-65
2023/08/05 09:47:47;;;;;;;7.72;5.28;;;;;;;;;;5049431;28;20053;-64
2023/08/05 09:50:14;;;;;;;5.28;4.47;;;;;;;;;;5062191;28;20053;-62
2023/08/05 09:52:41;;;;;;;8.25;4.47;;;;;;;;;;5063728;28;20499;-62
2023/08/05 09:55:12;;;;;;;5.45;4.40;;;;;;;;;;5064669;28;20513;-64
2023/08/05 09:57:39;;;;;;;7.13;4.35;;;;;;;;;;5064140;28;20526;-60
2023/08/05 10:00:13;;;;;;;5.20;4.28;;;;;;;;;;5064537;28;20052;-63
2023/08/05 10:02:40;;;;;;;5.70;4.20;;;;;;;;;;5046603;28;20062;-61
2023/08/05 10:05:09;;;;;;;6.93;4.75;;;;;;;;;;5056814;28;20112;-59
2023/08/05 10:07:40;;;;;;;5.05;4.55;;;;;;;;;;5064920;28;20052;-64
2023/08/05 10:10:12;;;;;;;8.93;5.30;;;;;;;;;;5059758;28;20057;-65
2023/08/05 10:12:47;;;;;;;7.20;4.63;;;;;;;;;;5061690;28;20520;-64
2023/08/05 10:15:18;;;;;;;6.50;4.88;;;;;;;;;;5057574;28;20053;-64
2023/08/05 10:17:45;;;;;;;5.40;4.10;;;;;;;;;;5044283;28;20050;-63
2023/08/05 10:20:12;;;;;;;7.03;4.43;;;;;;;;;;5044120;28;20053;-62
2023/08/05 10:22:41;;;;;;;6.00;4.50;;;;;;;;;;5053675;28;20065;-65
2023/08/05 10:25:08;;;;;;;4.90;4.35;;;;;;;;;;5060684;28;20517;-64
2023/08/05 10:27:34;;;;;;;7.38;4.43;;;;;;;;;;5049724;28;20497;-61
2023/08/05 10:30:08;;;;;;;7.13;4.60;;;;;;;;;;5046792;28;20511;-65
2023/08/05 10:32:35;;;;;;;8.48;4.82;;;;;;;;;;5063612;28;20127;-62
2023/08/05 10:35:21;;;;;;;7.72;4.85;;;;;;;;;;5064383;28;20053;-63
2023/08/05 10:37:48;;;;;;;4.63;3.88;;;;;;;;;;5063458;28;20597;-60
2023/08/05 10:40:34;;;;;;;4.63;3.88;;;;;;;;;;5047126;28;20539;-64
2023/08/05 10:43:00;;;;;;;6.95;4.35;;;;;;;;;;5060402;28;20143;-63
2023/08/05 10:45:27;;;;;;;11.13;5.03;;;;;;;;;;5062045;28;20419;-62
2023/08/05 10:47:53;;;;;;;6.60;4.47;;;;;;;;;;5064751;28;20576;-64
2023/08/05 10:50:20;;;;;;;6.15;4.40;;;;;;;;;;5049576;28;20075;-64
2023/08/05 10:52:49;;;;;;;4.35;3.95;;;;;;;;;;5064303;28;20103;-64
2023/08/05 10:55:15;;;;;;;5.25;3.85;;;;;;;;;;5056855;28;20516;-63
2023/08/05 10:57:42;;;;;;;5.63;4.85;;;;;;;;;;5063793;28;20057;-62
2023/08/05 11:00:16;;;;;;;7.03;4.60;;;;;;;;;;5062796;28;20505;-65
2023/08/05 11:02:43;;;;;;;5.47;4.05;;;;;;;;;;5063470;28;20083;-62
2023/08/05 11:05:10;;;;;;;4.90;4.40;;;;;;;;;;5056430;28;20053;-65
2023/08/05 11:07:37;;;;;;;5.40;4.22;;;;;;;;;;5062467;28;20828;-64
2023/08/05 11:10:03;;;;;;;8.15;4.40;;;;;;;;;;5063378;28;20052;-62
2023/08/05 11:12:30;;;;;;;5.03;4.50;;;;;;;;;;5063805;28;20102;-62
2023/08/05 11:14:57;;;;;;;6.22;4.07;;;;;;;;;;5063946;28;20063;-62
2023/08/05 11:17:24;;;;;;;13.40;5.68;;;;;;;;;;5062677;28;20049;-64
2023/08/05 11:19:54;;;;;;;22.80;4.55;;;;;;;;;;5063274;28;20222;-64
2023/08/05 11:22:25;;;;;;;10.77;4.40;;;;;;;;;;5062174;28;20115;-64
2023/08/05 11:24:58;;;;;;;6.55;5.03;;;;;;;;;;5050424;28;20849;-66
2023/08/05 11:27:35;;;;;;;6.57;5.60;;;;;;;;;;5063193;28;20110;-65
2023/08/05 11:30:15;;;;;;;8.38;6.70;;;;;;;;;;5063158;28;20084;-61
2023/08/05 11:32:48;;;;;;;7.80;5.75;;;;;;;;;;5062392;28;20057;-60
2023/08/05 11:35:14;;;;;;;8.05;6.05;;;;;;;;;;5053844;28;20049;-59
2023/08/05 11:37:41;;;;;;;8.77;5.72;;;;;;;;;;5061305;28;20057;-63
2023/08/05 11:40:07;;;;;;;6.07;5.47;;;;;;;;;;5059148;28;20057;-62
2023/08/05 11:42:36;;;;;;;9.88;6.65;;;;;;;;;;5056102;28;20508;-62
2023/08/05 11:45:03;;;;;;;8.52;6.03;;;;;;;;;;5061736;28;20045;-63
2023/08/05 11:47:30;;;;;;;7.25;5.97;;;;;;;;;;5063006;28;20103;-60
2023/08/05 11:49:56;;;;;;;7.13;6.28;;;;;;;;;;5062661;28;20059;-60
2023/08/05 11:52:23;;;;;;;12.23;6.72;;;;;;;;;;5053833;28;20166;-64
2023/08/05 11:54:57;;;;;;;7.18;6.47;;;;;;;;;;5059703;28;20057;-63
2023/08/05 11:57:24;;;;;;;11.40;6.80;;;;;;;;;;5063159;28;20056;-60
2023/08/05 11:59:51;;;;;;;11.63;7.22;;;;;;;;;;5063037;28;20835;-66
2023/08/05 12:02:18;;;;;;;11.70;7.25;;;;;;;;;;5062908;28;20132;-66
2023/08/05 12:04:55;;;;;;;9.93;6.10;;;;;;;;;;5062442;28;20613;-64
2023/08/05 12:07:24;;;;;;;7.88;5.85;;;;;;;;;;5043157;28;20652;-64
2023/08/05 12:10:08;;;;;;;7.93;5.60;;;;;;;;;;5042402;28;20063;-59
2023/08/05 12:12:35;;;;;;;9.57;5.05;;;;;;;;;;5042575;28;20050;-65
2023/08/05 12:15:14;;;;;;;6.28;5.35;;;;;;;;;;5052696;28;20121;-71
2023/08/05 12:17:46;;;;;;;7.40;5.72;;;;;;;;;;5060559;28;20088;-70
2023/08/05 12:20:14;;;;;;;6.07;4.82;;;;;;;;;;5062892;28;20128;-67
2023/08/05 12:22:41;;;;;;;7.50;5.45;;;;;;;;;;5060981;28;20598;-65
2023/08/05 12:25:07;;;;;;;6.15;4.63;;;;;;;;;;5063707;28;20116;-67
2023/08/05 12:27:34;;;;;;;8.23;5.43;;;;;;;;;;5062653;28;20052;-69
2023/08/05 12:30:00;;;;;;;8.45;5.35;;;;;;;;;;5053932;28;20052;-63
2023/08/05 12:32:26;;;;;;;9.35;4.55;;;;;;;;;;5062156;28;20126;-61
2023/08/05 12:34:53;;;;;;;8.23;4.82;;;;;;;;;;5063776;28;20064;-64
2023/08/05 12:37:19;;;;;;;6.10;4.18;;;;;;;;;;5063943;28;20608;-62
2023/08/05 12:39:46;;;;;;;9.13;4.25;;;;;;;;;;5064943;28;20227;-62
2023/08/05 12:42:13;;;;;;;6.65;3.45;;;;;;;;;;5064502;28;20539;-63
2023/08/05 12:44:39;;;;;;;4.82;3.83;;;;;;;;;;5065504;28;20053;-63
2023/08/05 12:47:06;;;;;;;8.52;3.90;;;;;;;;;;5057098;28;20150;-61
2023/08/05 12:49:32;;;;;;;5.97;3.95;;;;;;;;;;5072463;28;20084;-63
2023/08/05 12:51:59;;;;;;;5.90;3.78;;;;;;;;;;5065180;28;20049;-65
2023/08/05 12:54:25;;;;;;;8.32;4.03;;;;;;;;;;5065772;28;20685;-63
2023/08/05 12:56:52;;;;;;;8.90;4.35;;;;;;;;;;5048931;28;20621;-64
2023/08/05 12:59:18;;;;;;;5.03;3.20;;;;;;;;;;5046774;28;20072;-64
2023/08/05 13:01:45;;;;;;;6.05;3.80;;;;;;;;;;5045522;28;20049;-64
2023/08/05 13:04:11;;;;;;;6.35;3.75;;;;;;;;;;5045837;28;20084;-59
2023/08/05 13:06:39;;;;;;;7.45;3.30;;;;;;;;;;5052900;28;20135;-60
2023/08/05 13:09:05;;;;;;;5.55;3.15;;;;;;;;;;5052512;28;20057;-61
2023/08/05 13:11:31;;;;;;;6.50;2.65;;;;;;;;;;5050649;28;20136;-65
2023/08/05 13:13:58;;;;;;;4.50;3.08;;;;;;;;;;5063805;28;20132;-60
2023/08/05 13:16:24;;;;;;;3.75;3.00;;;;;;;;;;5060700;28;20061;-65
2023/08/05 13:18:51;;;;;;;8.02;2.90;;;;;;;;;;5057407;28;20060;-65
2023/08/05 13:21:17;;;;;;;3.20;2.40;;;;;;;;;;5064567;28;20063;-65
2023/08/05 13:23:44;;;;;;;3.92;2.92;;;;;;;;;;5062983;28;22144;-64
2023/08/05 13:26:11;;;;;;;3.40;2.72;;;;;;;;;;5045579;28;20511;-65
2023/08/05 13:28:37;;;;;;;4.97;3.05;;;;;;;;;;5044935;28;20056;-64
2023/08/05 13:31:04;;;;;;;6.07;3.25;;;;;;;;;;5045084;28;20049;-61
2023/08/05 13:33:30;;;;;;;4.00;3.22;;;;;;;;;;5044319;28;20053;-64
2023/08/05 13:35:57;;;;;;;6.43;3.17;;;;;;;;;;5049584;28;20071;-63
2023/08/05 13:38:24;;;;;;;5.47;3.42;;;;;;;;;;5074388;28;20537;-65
2023/08/05 13:40:50;;;;;;;3.88;3.47;;;;;;;;;;5057191;28;20064;-61
2023/08/05 13:43:17;;;;;;;4.35;3.45;;;;;;;;;;5071047;28;20053;-65
2023/08/05 13:45:56;;;;;;;7.53;3.58;;;;;;;;;;5065369;28;20061;-64
2023/08/05 13:48:24;;;;;;;5.32;3.40;;;;;;;;;;5064512;28;20924;-64
2023/08/05 13:51:19;;;;;;;6.55;3.35;;;;;;;;;;5064039;28;20135;-64
2023/08/05 13:53:46;;;;;;;6.43;3.67;;;;;;;;;;5056189;28;20479;-62
2023/08/05 13:56:12;;;;;;;5.57;3.60;;;;;;;;;;5064803;28;20053;-65
2023/08/05 13:58:39;;;;;;;5.40;3.55;;;;;;;;;;5064696;28;20518;-64
2023/08/05 14:01:11;;;;;;;5.68;3.75;;;;;;;;;;5057784;28;20110;-62
2023/08/05 14:03:37;;;;;;;6.38;3.78;;;;;;;;;;5064005;28;20550;-64
2023/08/05 14:06:04;;;;;;;5.28;4.07;;;;;;;;;;5064823;28;20053;-64
2023/08/05 14:08:31;;;;;;;5.93;3.80;;;;;;;;;;5064310;28;20060;-61
2023/08/05 14:10:58;;;;;;;7.07;3.65;;;;;;;;;;5062622;28;20533;-64
2023/08/05 14:13:24;;;;;;;6.57;3.70;;;;;;;;;;5048069;28;20057;-64
2023/08/05 14:15:53;;;;;;;5.40;3.67;;;;;;;;;;5060683;28;20059;-64
2023/08/05 14:18:20;;;;;;;5.65;4.15;;;;;;;;;;5048035;28;20057;-61
2023/08/05 14:20:47;;;;;;;9.15;4.70;;;;;;;;;;5043766;28;20060;-65
2023/08/05 14:23:14;;;;;;;5.82;3.70;;;;;;;;;;5045260;28;20199;-66
2023/08/05 14:25:43;;;;;;;8.15;4.38;;;;;;;;;;5044361;28;20053;-64
2023/08/05 14:28:10;;;;;;;5.80;4.10;;;;;;;;;;5050268;28;20057;-63
2023/08/05 14:30:37;;;;;;;6.13;4.25;;;;;;;;;;5067637;28;20151;-61
2023/08/05 14:33:04;;;;;;;6.30;4.60;;;;;;;;;;5057199;28;20059;-64
2023/08/05 14:35:31;;;;;;;7.15;4.50;;;;;;;;;;5063100;28;20057;-62
2023/08/05 14:37:58;;;;;;;7.70;4.10;;;;;;;;;;5043283;28;20100;-64
2023/08/05 14:40:25;;;;;;;6.93;4.20;;;;;;;;;;5043755;28;20137;-63